Time;durP1;ratioP1;P1;durP2;ratioP2;P2;SDS_P1;SDS_P2;PMS_P1;PMS_P2;Temp;Humidity;BMP_temperature;BMP_pressure;BME280_temperature;BME280_humidity;BME280_pressure;Samples;Min_cycle;Max_cycle;Signal;HPM_P1;HPM_P2
2022/08/06 00:00:23;;;;;;;10.80;8.60;;;;;;;22.47;69.02;100503.91;5023197;28;20076;-86
2022/08/06 00:02:49;;;;;;;12.35;8.88;;;;;;;22.57;69.15;100514.25;5023950;28;20064;-87
2022/08/06 00:05:38;;;;;;;14.80;8.65;;;;;;;22.49;69.31;100510.81;5026262;28;20037;-86
2022/08/06 00:08:04;;;;;;;14.38;8.70;;;;;;;22.36;69.77;100494.69;5027864;28;20492;-86
2022/08/06 00:10:31;;;;;;;12.52;8.38;;;;;;;22.32;70.01;100504.44;5024281;28;20045;-87
2022/08/06 00:12:59;;;;;;;11.57;8.43;;;;;;;22.23;70.52;100505.91;5006082;28;20083;-87
2022/08/06 00:15:27;;;;;;;14.10;9.07;;;;;;;22.17;70.71;100501.34;5036522;28;20171;-87
2022/08/06 00:17:54;;;;;;;18.05;10.93;;;;;;;22.13;70.94;100501.84;5016448;28;20032;-87
2022/08/06 00:20:22;;;;;;;15.77;10.88;;;;;;;22.10;71.13;100499.59;5011063;28;20045;-87
2022/08/06 00:22:48;;;;;;;23.08;11.40;;;;;;;22.20;70.64;100506.38;4996804;28;20037;-87
2022/08/06 00:25:17;;;;;;;15.40;12.18;;;;;;;22.12;71.05;100494.72;5021536;28;20118;-87
2022/08/06 00:27:43;;;;;;;17.88;13.50;;;;;;;22.06;71.61;100501.13;5041183;28;20063;-87
2022/08/06 00:30:09;;;;;;;21.48;13.95;;;;;;;22.07;71.79;100496.50;5023290;28;20137;-87
2022/08/06 00:32:38;;;;;;;20.23;14.32;;;;;;;22.07;71.86;100502.78;5015887;28;20102;-87
2022/08/06 00:35:05;;;;;;;20.25;14.43;;;;;;;22.08;72.28;100498.16;5025321;28;20048;-87
2022/08/06 00:37:36;;;;;;;20.95;15.18;;;;;;;22.04;72.81;100492.34;5031211;28;20029;-86
2022/08/06 00:40:02;;;;;;;22.35;15.52;;;;;;;21.96;73.39;100484.50;5055178;28;20113;-87
2022/08/06 00:42:29;;;;;;;25.83;16.73;;;;;;;21.89;73.58;100486.50;5031253;28;20059;-87
2022/08/06 00:44:54;;;;;;;33.30;17.20;;;;;;;21.84;74.16;100497.34;5029825;28;20041;-87
2022/08/06 00:47:20;;;;;;;26.75;18.23;;;;;;;21.99;73.98;100499.63;5054067;28;20036;-87
2022/08/06 00:49:46;;;;;;;31.27;18.83;;;;;;;21.81;74.67;100490.47;5022224;28;20050;-87
2022/08/06 00:52:12;;;;;;;27.00;18.88;;;;;;;21.75;75.03;100496.03;5047354;28;20496;-87
2022/08/06 00:54:39;;;;;;;29.10;18.13;;;;;;;21.73;73.93;100470.81;5029109;28;20044;-87
2022/08/06 00:57:06;;;;;;;29.23;18.58;;;;;;;21.80;74.44;100498.91;5051158;28;20119;-87
2022/08/06 00:59:34;;;;;;;31.48;18.83;;;;;;;21.69;74.08;100492.38;5049067;28;20040;-88
2022/08/06 01:01:59;;;;;;;25.23;17.55;;;;;;;21.68;74.23;100498.91;5005975;28;20136;-88
2022/08/06 01:04:25;;;;;;;23.23;16.63;;;;;;;21.67;73.80;100492.59;5017213;28;20071;-86
2022/08/06 01:06:51;;;;;;;29.83;16.15;;;;;;;21.78;73.04;100498.31;5021120;28;20036;-86
2022/08/06 01:09:21;;;;;;;25.30;14.48;;;;;;;21.84;72.12;100495.44;5043779;28;20090;-86
2022/08/06 01:11:50;;;;;;;22.70;14.23;;;;;;;21.68;71.95;100488.81;5042694;28;20119;-87
2022/08/06 01:14:16;;;;;;;23.67;14.27;;;;;;;21.72;71.84;100505.56;5014873;28;20110;-86
2022/08/06 01:16:48;;;;;;;18.35;13.98;;;;;;;21.66;71.58;100498.34;5017245;28;20053;-87
2022/08/06 01:19:26;;;;;;;18.02;13.88;;;;;;;21.50;72.05;100499.88;5038822;28;20045;-87
2022/08/06 01:22:22;;;;;;;18.90;13.13;;;;;;;21.51;71.67;100496.06;5059737;28;20029;-87
2022/08/06 01:25:10;;;;;;;27.20;12.82;;;;;;;21.53;71.32;100496.66;5003653;28;20434;-87
2022/08/06 01:27:44;;;;;;;20.50;12.00;;;;;;;21.44;71.69;100498.06;5000064;28;20040;-86
2022/08/06 01:30:18;;;;;;;15.90;11.40;;;;;;;21.44;71.31;100485.22;5003676;28;20115;-86
2022/08/06 01:33:01;;;;;;;18.15;10.68;;;;;;;21.38;70.52;100488.06;4993253;28;20058;-86
2022/08/06 01:35:34;;;;;;;16.77;10.85;;;;;;;21.34;70.26;100487.69;4989232;28;20034;-87
2022/08/06 01:38:07;;;;;;;22.55;10.98;;;;;;;21.28;70.29;100480.41;5000606;28;20056;-86
2022/08/06 01:40:34;;;;;;;20.73;11.73;;;;;;;21.34;69.97;100482.22;5003436;28;20049;-87
2022/08/06 01:43:01;;;;;;;17.40;12.02;;;;;;;21.34;70.26;100486.88;5014501;28;20196;-87
2022/08/06 01:45:30;;;;;;;20.83;14.10;;;;;;;21.20;70.87;100481.59;4993093;28;20041;-86
2022/08/06 01:48:18;;;;;;;28.60;15.05;;;;;;;21.18;71.37;100472.81;4993359;28;20129;-87
2022/08/06 01:50:48;;;;;;;20.45;14.57;;;;;;;21.14;71.89;100488.03;5011332;28;20125;-86
2022/08/06 01:53:16;;;;;;;25.05;16.40;;;;;;;21.03;72.19;100464.25;5015890;28;20030;-87
2022/08/06 01:55:45;;;;;;;23.17;16.10;;;;;;;21.20;72.35;100481.59;4987175;28;20617;-86
2022/08/06 01:58:12;;;;;;;26.25;17.00;;;;;;;21.18;72.55;100486.47;5020874;28;20117;-87
2022/08/06 02:00:43;;;;;;;25.85;17.73;;;;;;;21.23;72.39;100480.31;5000936;28;20462;-86
2022/08/06 02:03:45;;;;;;;24.10;17.80;;;;;;;21.24;72.69;100488.28;5015088;28;20049;-85
2022/08/06 02:06:12;;;;;;;30.42;17.98;;;;;;;21.12;73.18;100487.44;4935206;28;20099;-87
2022/08/06 02:08:38;;;;;;;31.27;18.27;;;;;;;21.08;72.86;100469.84;4993343;28;20033;-87
2022/08/06 02:11:05;;;;;;;32.88;19.33;;;;;;;21.32;72.24;100478.06;4978739;28;20057;-87
2022/08/06 02:13:33;;;;;;;29.80;18.88;;;;;;;21.32;72.53;100472.59;5010050;28;20053;-87
2022/08/06 02:16:00;;;;;;;29.15;17.80;;;;;;;21.29;72.36;100479.38;5013219;28;20041;-86
2022/08/06 02:18:28;;;;;;;28.08;18.42;;;;;;;21.25;72.39;100465.31;5013592;28;20037;-87
2022/08/06 02:20:55;;;;;;;28.60;17.75;;;;;;;21.24;72.02;100454.66;4993439;28;20045;-86
2022/08/06 02:23:23;;;;;;;24.98;17.80;;;;;;;21.34;71.83;100467.72;5000912;28;20033;-86
2022/08/06 02:25:51;;;;;;;30.52;18.38;;;;;;;21.28;71.89;100470.34;5048944;28;20084;-85
2022/08/06 02:28:18;;;;;;;30.58;17.67;;;;;;;21.15;72.17;100467.81;5033634;28;20439;-86
2022/08/06 02:30:47;;;;;;;34.90;18.52;;;;;;;21.21;72.27;100471.50;5017251;28;20048;-86
2022/08/06 02:33:16;;;;;;;26.92;18.27;;;;;;;21.13;72.13;100477.31;5028249;28;20032;-87
2022/08/06 02:35:48;;;;;;;27.40;19.08;;;;;;;21.00;72.65;100475.63;5031719;28;20049;-87
2022/08/06 02:38:20;;;;;;;32.85;17.98;;;;;;;20.97;72.52;100470.63;5019959;28;20584;-87
2022/08/06 02:41:01;;;;;;;34.25;19.48;;;;;;;21.15;71.96;100478.75;5045246;28;20033;-86
2022/08/06 02:43:55;;;;;;;29.02;18.50;;;;;;;21.01;72.36;100482.78;5039629;28;20037;-87
2022/08/06 02:46:43;;;;;;;33.97;18.15;;;;;;;20.95;72.68;100480.97;5028634;28;20045;-87
2022/08/06 02:49:29;;;;;;;29.15;18.25;;;;;;;20.92;73.02;100486.91;5016573;28;20044;-87
2022/08/06 02:52:22;;;;;;;28.17;17.38;;;;;;;20.95;72.69;100483.69;5055163;28;20104;-86
2022/08/06 02:54:59;;;;;;;23.77;16.95;;;;;;;20.85;73.33;100487.81;5025117;28;20138;-87
2022/08/06 02:57:35;;;;;;;25.58;17.58;;;;;;;20.82;72.43;100484.75;5029565;28;20040;-87
2022/08/06 03:00:09;;;;;;;28.45;18.10;;;;;;;20.80;72.89;100487.69;5031372;28;20041;-87
2022/08/06 03:02:39;;;;;;;30.83;18.58;;;;;;;20.72;72.67;100485.31;5019919;28;20078;-87
2022/08/06 03:05:08;;;;;;;33.03;18.20;;;;;;;20.85;72.40;100496.03;5000806;28;20033;-86
2022/08/06 03:07:41;;;;;;;27.92;17.45;;;;;;;20.86;71.89;100491.38;5029922;28;20571;-86
2022/08/06 03:10:07;;;;;;;26.73;17.75;;;;;;;20.84;72.07;100494.38;5014695;28;20045;-86
2022/08/06 03:12:36;;;;;;;22.77;17.02;;;;;;;20.93;71.44;100492.16;5016381;28;20131;-86
2022/08/06 03:15:02;;;;;;;28.27;16.23;;;;;;;20.94;70.76;100501.16;5013456;28;20040;-87
2022/08/06 03:17:30;;;;;;;29.63;15.93;;;;;;;20.99;69.81;100491.19;5015972;28;20048;-87
2022/08/06 03:19:56;;;;;;;23.17;14.52;;;;;;;20.97;69.74;100497.97;5026527;28;20028;-87
2022/08/06 03:22:25;;;;;;;23.80;14.82;;;;;;;21.06;69.55;100502.03;5025288;28;20075;-87
2022/08/06 03:24:51;;;;;;;21.00;13.85;;;;;;;21.01;69.34;100490.97;5012267;28;20060;-87
2022/08/06 03:27:16;;;;;;;23.85;14.35;;;;;;;21.05;69.19;100487.53;5001765;28;20025;-88
2022/08/06 03:29:42;;;;;;;19.30;13.35;;;;;;;21.15;68.85;100497.88;5016423;28;20033;-87
2022/08/06 03:32:08;;;;;;;22.08;13.57;;;;;;;21.12;68.35;100495.63;5016971;28;20173;-87
2022/08/06 03:34:34;;;;;;;20.08;13.63;;;;;;;21.19;68.22;100498.22;5028900;28;20075;-87
2022/08/06 03:37:01;;;;;;;18.05;12.77;;;;;;;21.21;68.08;100499.69;5017935;28;20433;-87
2022/08/06 03:39:28;;;;;;;19.13;13.48;;;;;;;21.04;68.77;100504.97;5027424;28;20079;-87
2022/08/06 03:41:54;;;;;;;19.65;13.77;;;;;;;21.14;68.27;100498.97;5032891;28;20044;-87
2022/08/06 03:44:19;;;;;;;21.75;13.35;;;;;;;21.17;68.54;100498.50;5032496;28;20554;-87
2022/08/06 03:47:21;;;;;;;21.05;13.45;;;;;;;21.32;68.10;100500.75;5047243;28;20033;-86
2022/08/06 03:50:19;;;;;;;21.25;13.43;;;;;;;21.24;67.78;100485.53;5010162;28;20052;-87
2022/08/06 03:52:46;;;;;;;18.27;13.05;;;;;;;21.43;67.87;100505.44;5010761;28;20508;-86
2022/08/06 03:55:23;;;;;;;23.08;13.73;;;;;;;21.38;68.08;100505.28;5030403;28;20462;-86
2022/08/06 03:57:54;;;;;;;25.40;14.38;;;;;;;21.31;68.01;100487.34;5041062;28;20032;-86
2022/08/06 04:00:23;;;;;;;18.30;13.65;;;;;;;21.37;68.23;100495.41;5015054;28;20055;-86
2022/08/06 04:02:53;;;;;;;18.80;13.93;;;;;;;21.53;67.76;100504.84;5027753;28;20084;-86
2022/08/06 04:05:23;;;;;;;21.85;13.70;;;;;;;21.49;68.05;100501.78;5046052;28;20048;-86
2022/08/06 04:07:50;;;;;;;24.20;14.23;;;;;;;21.61;67.79;100503.66;5014601;28;20030;-86
2022/08/06 04:10:19;;;;;;;22.00;13.77;;;;;;;21.65;68.04;100502.94;5045024;28;20033;-87
2022/08/06 04:12:44;;;;;;;20.90;13.50;;;;;;;21.70;67.88;100497.63;5002580;28;20037;-86
2022/08/06 04:15:20;;;;;;;18.27;13.18;;;;;;;21.67;67.76;100484.41;5022821;28;20512;-86
2022/08/06 04:17:47;;;;;;;22.58;13.60;;;;;;;21.80;67.47;100509.88;5027633;28;20458;-86
2022/08/06 04:20:17;;;;;;;24.25;14.23;;;;;;;21.81;67.69;100495.09;5012271;28;20108;-87
2022/08/06 04:22:45;;;;;;;20.80;13.88;;;;;;;21.84;67.54;100500.09;5031488;28;20077;-87
2022/08/06 04:25:12;;;;;;;23.48;14.25;;;;;;;22.07;67.17;100502.78;5029167;28;20029;-86
2022/08/06 04:27:38;;;;;;;20.38;13.98;;;;;;;22.12;66.91;100491.97;5017090;28;20064;-87
2022/08/06 04:30:06;;;;;;;23.88;13.95;;;;;;;22.09;66.77;100492.44;5011452;28;20068;-86
2022/08/06 04:32:33;;;;;;;25.15;13.45;;;;;;;22.33;66.17;100500.63;4998086;28;20068;-86
2022/08/06 04:35:05;;;;;;;27.48;14.00;;;;;;;22.30;66.28;100496.47;5011858;28;20072;-86
2022/08/06 04:37:33;;;;;;;18.10;13.50;;;;;;;22.41;65.89;100505.72;5032854;28;20397;-87
2022/08/06 04:39:58;;;;;;;19.98;13.30;;;;;;;22.33;65.38;100498.72;5032981;28;20373;-86
2022/08/06 04:42:25;;;;;;;19.25;13.30;;;;;;;22.46;65.38;100505.81;5051160;28;20044;-86
2022/08/06 04:44:51;;;;;;;23.02;13.20;;;;;;;22.62;65.13;100509.72;5014365;28;20044;-87
2022/08/06 04:47:18;;;;;;;19.35;12.45;;;;;;;22.62;64.44;100492.44;5001307;28;20040;-87
2022/08/06 04:49:43;;;;;;;18.48;12.32;;;;;;;22.88;64.52;100507.44;5024299;28;20052;-86
2022/08/06 04:52:24;;;;;;;19.88;12.30;;;;;;;23.14;63.73;100508.75;5017817;28;20087;-86
2022/08/06 04:54:53;;;;;;;21.67;12.75;;;;;;;23.44;63.22;100513.09;5042087;28;20482;-87
2022/08/06 04:57:20;;;;;;;20.35;12.35;;;;;;;23.68;61.85;100506.34;5042395;28;20060;-88
2022/08/06 04:59:52;;;;;;;18.23;12.32;;;;;;;24.01;61.45;100505.44;5067356;28;20055;-85
2022/08/06 05:02:20;;;;;;;26.63;12.55;;;;;;;24.34;59.59;100502.84;5060792;28;20052;-87
2022/08/06 05:04:53;;;;;;;19.75;12.05;;;;;;;24.63;58.47;100509.84;5050033;28;20041;-87
2022/08/06 05:07:31;;;;;;;20.20;12.35;;;;;;;24.99;57.79;100512.13;5033695;28;20230;-87
2022/08/06 05:09:59;;;;;;;16.75;10.65;;;;;;;25.29;57.19;100506.09;5026063;28;20025;-87
2022/08/06 05:12:32;;;;;;;14.18;11.30;;;;;;;25.44;56.20;100510.88;5000740;28;20036;-88
2022/08/06 05:15:31;;;;;;;24.60;11.80;;;;;;;25.76;55.55;100502.56;5041863;28;20089;-86
2022/08/06 05:18:10;;;;;;;17.67;10.75;;;;;;;26.04;55.18;100503.31;5035828;28;20124;-86
2022/08/06 05:20:49;;;;;;;19.55;10.40;;;;;;;26.39;53.87;100504.56;5042008;28;20059;-88
2022/08/06 05:23:39;;;;;;;18.98;9.50;;;;;;;26.56;52.63;100507.97;5058292;28;20064;-87
2022/08/06 05:26:13;;;;;;;24.30;10.18;;;;;;;26.73;52.08;100514.06;5020562;28;20076;-89
2022/08/06 05:28:39;;;;;;;16.13;12.43;;;;;;;26.86;52.18;100517.41;5032082;28;20036;-86
2022/08/06 05:31:09;;;;;;;18.65;13.23;;;;;;;26.75;52.61;100505.53;5030828;28;20033;-86
2022/08/06 05:33:38;;;;;;;15.88;11.77;;;;;;;26.89;52.38;100506.66;5034158;28;20025;-86
2022/08/06 05:36:10;;;;;;;16.00;11.50;;;;;;;27.27;51.30;100514.72;5010067;28;20141;-86
2022/08/06 05:38:37;;;;;;;16.70;10.52;;;;;;;27.61;50.53;100511.41;5028163;28;20071;-88
2022/08/06 05:41:08;;;;;;;17.58;9.48;;;;;;;27.89;48.94;100497.00;5030253;28;20041;-85
2022/08/06 05:43:36;;;;;;;21.30;9.85;;;;;;;28.10;48.38;100508.00;5013072;28;20553;-84
2022/08/06 05:46:10;;;;;;;16.83;9.52;;;;;;;28.22;48.26;100502.16;5042949;28;20021;-92
2022/08/06 05:48:48;;;;;;;14.13;8.43;;;;;;;28.59;47.05;100502.53;5023058;28;20037;-87
2022/08/06 05:51:49;;;;;;;13.70;8.43;;;;;;;28.65;46.48;100508.03;5034330;28;20102;-87
2022/08/06 05:54:42;;;;;;;14.57;8.00;;;;;;;28.76;46.48;100521.53;5010097;28;20052;-86
2022/08/06 05:57:12;;;;;;;;;;;;;;;28.87;46.31;100516.75;5019092;28;20033;-86
2022/08/06 05:59:39;;;;;;;8.90;7.63;;;;;;;29.06;45.07;100505.84;5047613;28;19917;-90
2022/08/06 06:02:12;;;;;;;10.98;7.97;;;;;;;29.37;45.36;100506.44;5017660;28;20092;-89
2022/08/06 06:04:37;;;;;;;13.25;8.23;;;;;;;29.57;44.01;100505.44;5029940;28;20044;-89
2022/08/06 06:07:03;;;;;;;12.68;8.10;;;;;;;29.86;43.54;100510.16;5019423;28;20451;-85
2022/08/06 06:09:29;;;;;;;16.80;8.50;;;;;;;29.93;43.48;100507.84;5029222;28;20033;-90
2022/08/06 06:11:59;;;;;;;15.10;8.18;;;;;;;30.00;43.53;100494.47;5016500;28;20036;-85
2022/08/06 06:14:45;;;;;;;14.57;8.30;;;;;;;29.89;44.25;100498.47;5013658;28;20051;-87
2022/08/06 06:17:20;;;;;;;13.25;8.38;;;;;;;30.14;43.57;100497.34;5031605;28;20519;-85
2022/08/06 06:20:17;;;;;;;12.95;8.88;;;;;;;30.18;43.26;100500.34;5021316;28;20176;-84
2022/08/06 06:23:08;;;;;;;9.98;7.90;;;;;;;30.04;43.95;100501.09;5042916;28;20037;-86
2022/08/06 06:26:17;;;;;;;17.88;8.38;;;;;;;30.19;43.63;100499.25;5052267;28;20055;-83
2022/08/06 06:29:08;;;;;;;15.95;8.68;;;;;;;30.53;43.15;100503.81;5023748;28;20061;-83
2022/08/06 06:31:33;;;;;;;9.85;8.70;;;;;;;30.86;42.31;100493.63;5036099;28;20190;-88
2022/08/06 06:34:11;;;;;;;12.75;8.82;;;;;;;30.98;41.85;100490.44;5035980;28;20159;-85
2022/08/06 06:36:44;;;;;;;14.07;8.23;;;;;;;31.15;41.48;100493.47;5034919;28;20049;-86
2022/08/06 06:39:52;;;;;;;10.23;7.22;;;;;;;30.87;42.05;100486.97;5011949;28;20094;-87
2022/08/06 06:42:31;;;;;;;12.02;7.30;;;;;;;30.65;42.28;100487.56;5026717;28;20559;-89
2022/08/06 06:45:14;;;;;;;10.85;6.75;;;;;;;30.61;42.62;100495.66;5018144;28;20127;-83
2022/08/06 06:48:06;;;;;;;13.38;7.63;;;;;;;30.85;42.18;100495.59;5024980;28;20385;-87
2022/08/06 06:50:34;;;;;;;8.85;6.53;;;;;;;30.92;40.95;100490.50;5043604;28;20094;-87
2022/08/06 06:53:01;;;;;;;10.85;6.57;;;;;;;31.18;41.30;100505.91;5042651;28;21839;-85
2022/08/06 06:55:44;;;;;;;8.45;6.88;;;;;;;31.43;40.90;100499.16;5040794;28;20413;-85
2022/08/06 06:58:28;;;;;;;11.38;6.82;;;;;;;31.58;40.03;100501.63;5009715;28;20030;-86
2022/08/06 07:00:58;;;;;;;9.77;6.95;;;;;;;31.12;41.46;100505.19;5041655;28;20063;-89
2022/08/06 07:03:27;;;;;;;9.98;6.93;;;;;;;31.00;41.72;100504.81;5013568;28;20066;-85
2022/08/06 07:05:53;;;;;;;11.48;6.90;;;;;;;31.09;42.24;100501.06;5037645;28;20056;-87
2022/08/06 07:08:21;;;;;;;14.75;7.90;;;;;;;31.61;41.35;100503.81;5020418;28;20033;-86
2022/08/06 07:10:50;;;;;;;12.45;7.03;;;;;;;31.99;40.18;100500.91;5034651;28;20088;-85
2022/08/06 07:13:19;;;;;;;12.13;7.05;;;;;;;32.11;40.20;100508.72;5048208;28;20037;-86
2022/08/06 07:15:46;;;;;;;9.50;6.53;;;;;;;32.17;39.36;100497.19;4997100;28;20155;-87
2022/08/06 07:18:12;;;;;;;8.88;6.80;;;;;;;32.10;39.42;100498.72;5029516;28;20123;-85
2022/08/06 07:20:39;;;;;;;11.13;6.97;;;;;;;31.84;39.77;100499.19;5011735;28;20128;-89
2022/08/06 07:23:07;;;;;;;7.68;6.88;;;;;;;32.09;39.69;100484.00;5026163;28;20174;-82
2022/08/06 07:25:46;;;;;;;12.00;6.50;;;;;;;32.54;38.95;100484.16;5037006;28;20422;-82
2022/08/06 07:28:14;;;;;;;8.95;6.60;;;;;;;32.46;38.98;100490.44;4984044;28;20744;-83
2022/08/06 07:30:42;;;;;;;7.82;6.53;;;;;;;32.91;38.70;100482.19;5028931;28;20048;-83
2022/08/06 07:33:09;;;;;;;10.88;6.82;;;;;;;33.16;38.21;100488.31;5016521;28;20117;-83
2022/08/06 07:35:36;;;;;;;9.38;6.95;;;;;;;33.37;37.80;100483.03;5028750;28;20040;-83
2022/08/06 07:38:06;;;;;;;11.93;6.55;;;;;;;32.98;38.37;100477.00;5047643;28;20437;-83
2022/08/06 07:40:39;;;;;;;10.02;6.72;;;;;;;33.27;37.93;100486.94;5029652;28;20055;-84
2022/08/06 07:43:12;;;;;;;9.77;6.28;;;;;;;32.74;37.99;100482.06;5035796;28;20029;-83
2022/08/06 07:45:37;;;;;;;7.18;6.47;;;;;;;33.08;37.53;100487.09;5044752;28;20033;-83
2022/08/06 07:48:06;;;;;;;8.27;6.78;;;;;;;32.96;37.69;100487.63;5018738;28;20064;-84
2022/08/06 07:50:32;;;;;;;12.13;7.50;;;;;;;33.16;38.18;100489.13;5022906;28;20517;-84
2022/08/06 07:52:57;;;;;;;9.52;6.97;;;;;;;33.68;37.47;100482.25;5052012;28;20041;-84
2022/08/06 07:55:25;;;;;;;8.48;6.43;;;;;;;33.92;36.71;100490.22;5023230;28;20120;-83
2022/08/06 07:57:52;;;;;;;12.23;6.72;;;;;;;34.24;36.47;100489.03;5027310;28;20025;-83
2022/08/06 08:00:17;;;;;;;11.20;6.85;;;;;;;34.28;35.81;100472.47;5028680;28;20105;-83
2022/08/06 08:06:17;;;;;;;11.45;6.55;;;;;;;34.22;36.22;100497.72;5052990;28;20029;-82
2022/08/06 08:08:13;;;;;;;8.73;6.47;;;;;;;33.98;36.49;100483.38;5015427;28;20127;-83
2022/08/06 08:10:39;;;;;;;10.07;6.90;;;;;;;34.43;36.29;100480.38;5025559;28;20021;-83
2022/08/06 08:13:04;;;;;;;6.63;5.93;;;;;;;34.22;36.97;100492.16;5052762;28;20481;-83
2022/08/06 08:15:31;;;;;;;11.73;6.63;;;;;;;34.24;37.44;100495.44;5021772;28;20478;-83
2022/08/06 08:17:57;;;;;;;8.90;6.72;;;;;;;34.06;37.62;100488.13;5034015;28;20032;-83
2022/08/06 08:20:23;;;;;;;10.10;6.28;;;;;;;34.01;36.69;100485.50;5041128;28;20086;-83
2022/08/06 08:22:48;;;;;;;9.25;5.70;;;;;;;33.96;36.88;100488.44;4998255;28;20048;-83
2022/08/06 08:25:14;;;;;;;9.00;5.80;;;;;;;34.01;35.10;100480.72;5026378;28;20060;-83
2022/08/06 08:27:39;;;;;;;9.88;5.88;;;;;;;33.73;36.23;100491.28;5052781;28;20033;-83
2022/08/06 08:30:05;;;;;;;6.07;5.28;;;;;;;33.32;34.76;100491.50;5044617;28;20048;-84
2022/08/06 08:32:31;;;;;;;5.65;4.82;;;;;;;33.08;34.02;100497.41;5032209;28;20036;-84
2022/08/06 08:34:56;;;;;;;8.60;4.80;;;;;;;32.80;34.90;100498.34;5045961;28;20060;-84
2022/08/06 08:37:22;;;;;;;7.80;4.88;;;;;;;33.58;34.02;100500.91;5051420;28;20041;-82
2022/08/06 08:39:48;;;;;;;8.02;5.18;;;;;;;33.70;34.76;100496.69;5045141;28;20083;-82
2022/08/06 08:42:28;;;;;;;10.18;5.63;;;;;;;33.15;36.94;100497.78;5046564;28;20441;-82
2022/08/06 08:44:54;;;;;;;6.03;5.43;;;;;;;33.74;36.51;100487.38;5016182;28;20121;-82
2022/08/06 08:47:20;;;;;;;7.68;5.20;;;;;;;33.94;36.60;100487.94;5054249;28;20037;-82
2022/08/06 08:49:47;;;;;;;6.13;5.28;;;;;;;33.97;36.26;100506.78;5040112;28;20088;-83
2022/08/06 08:52:17;;;;;;;6.15;5.55;;;;;;;34.49;35.57;100484.66;5023069;28;20037;-83
2022/08/06 08:54:49;;;;;;;8.02;5.10;;;;;;;34.97;35.25;100506.03;5039527;28;20033;-83
2022/08/06 08:57:15;;;;;;;7.88;5.40;;;;;;;35.30;34.32;100502.75;5034757;28;20433;-82
2022/08/06 08:59:40;;;;;;;5.88;5.22;;;;;;;35.22;34.55;100495.22;5032295;28;20041;-82
2022/08/06 09:02:06;;;;;;;6.53;5.05;;;;;;;35.14;34.52;100498.84;5052115;28;20021;-82
2022/08/06 09:04:32;;;;;;;7.10;4.90;;;;;;;34.92;33.65;100497.84;5045170;28;20056;-84
2022/08/06 09:06:57;;;;;;;5.32;4.82;;;;;;;35.90;32.04;100518.56;5033610;28;20025;-83
2022/08/06 09:09:23;;;;;;;5.93;4.50;;;;;;;36.11;31.76;100515.84;5029300;28;20036;-83
2022/08/06 09:11:49;;;;;;;6.13;4.55;;;;;;;36.39;30.81;100504.19;5031194;28;20037;-83
2022/08/06 09:14:14;;;;;;;7.60;4.40;;;;;;;35.67;30.75;100506.78;5048243;28;20060;-83
2022/08/06 09:16:40;;;;;;;8.50;4.78;;;;;;;36.04;31.15;100509.13;5026079;28;20061;-83
2022/08/06 09:19:06;;;;;;;5.50;4.57;;;;;;;36.33;31.37;100503.53;5049812;28;20036;-82
2022/08/06 09:21:32;;;;;;;5.97;4.80;;;;;;;35.28;33.11;100491.91;5043534;28;20069;-83
2022/08/06 09:23:57;;;;;;;7.35;4.97;;;;;;;35.95;32.31;100492.38;5030551;28;20045;-83
2022/08/06 09:26:24;;;;;;;6.53;5.10;;;;;;;36.59;31.48;100508.16;5045233;28;20076;-83
2022/08/06 09:28:50;;;;;;;6.15;5.35;;;;;;;38.07;29.71;100501.09;5031147;28;20128;-83
2022/08/06 09:31:17;;;;;;;5.65;5.07;;;;;;;38.70;28.52;100511.09;5024916;28;20472;-83
2022/08/06 09:33:59;;;;;;;7.97;4.88;;;;;;;38.37;29.18;100517.69;5049079;28;20373;-83
2022/08/06 09:36:24;;;;;;;6.93;5.10;;;;;;;39.46;27.73;100503.69;5042838;28;20033;-83
2022/08/06 09:38:54;;;;;;;6.57;4.82;;;;;;;38.35;29.12;100514.41;5030654;28;20071;-83
2022/08/06 09:41:24;;;;;;;5.25;4.78;;;;;;;38.97;28.58;100518.78;5027705;28;20037;-83
2022/08/06 09:43:51;;;;;;;7.18;5.05;;;;;;;37.83;30.67;100506.69;5030272;28;20024;-83
2022/08/06 09:46:17;;;;;;;6.30;5.20;;;;;;;37.62;31.20;100503.97;5003828;28;20032;-83
2022/08/06 09:48:57;;;;;;;6.00;5.40;;;;;;;37.08;31.43;100508.44;5031424;28;20056;-83
2022/08/06 09:51:23;;;;;;;7.30;5.47;;;;;;;37.08;32.30;100499.25;5049580;28;20405;-83
2022/08/06 09:53:53;;;;;;;5.75;5.25;;;;;;;35.54;35.89;100493.81;5048065;28;20469;-83
2022/08/06 09:56:18;;;;;;;6.22;5.22;;;;;;;34.87;36.61;100500.81;5039452;28;20032;-83
2022/08/06 09:58:44;;;;;;;7.60;5.40;;;;;;;34.41;37.62;100505.81;5014483;28;20037;-83
2022/08/06 10:01:15;;;;;;;7.25;5.90;;;;;;;33.73;38.39;100509.97;5045089;28;20088;-83
2022/08/06 10:03:41;;;;;;;7.38;5.80;;;;;;;33.80;38.84;100519.53;5030882;28;20045;-83
2022/08/06 10:06:12;;;;;;;7.07;6.05;;;;;;;33.60;39.36;100514.53;5026491;28;20037;-84
2022/08/06 10:08:38;;;;;;;6.65;5.70;;;;;;;34.09;38.34;100528.50;5048996;28;20028;-82
2022/08/06 10:11:04;;;;;;;8.00;6.05;;;;;;;34.00;38.65;100517.31;5042987;28;20566;-83
2022/08/06 10:13:30;;;;;;;6.35;5.70;;;;;;;34.66;37.34;100500.63;5054712;28;20033;-83
2022/08/06 10:15:57;;;;;;;6.22;5.63;;;;;;;35.14;37.01;100521.19;5042888;28;20477;-83
2022/08/06 10:18:39;;;;;;;6.95;6.25;;;;;;;34.13;38.46;100519.19;5033321;28;20021;-83
2022/08/06 10:21:12;;;;;;;9.48;5.90;;;;;;;33.82;40.10;100525.59;5047668;28;20029;-84
2022/08/06 10:23:41;;;;;;;8.02;6.00;;;;;;;33.18;41.40;100503.56;5038054;28;20058;-83
2022/08/06 10:26:11;;;;;;;10.07;5.93;;;;;;;33.88;39.93;100526.31;5047915;28;20416;-83
2022/08/06 10:28:37;;;;;;;7.57;5.75;;;;;;;33.94;40.17;100529.75;5052263;28;20098;-83
2022/08/06 10:31:04;;;;;;;7.65;5.90;;;;;;;34.31;38.76;100508.09;5044619;28;20588;-83
2022/08/06 10:33:32;;;;;;;9.38;5.95;;;;;;;34.81;37.86;100528.06;5053014;28;20105;-83
2022/08/06 10:36:03;;;;;;;6.70;5.25;;;;;;;36.97;33.92;100535.22;5043643;28;20025;-84
2022/08/06 10:38:28;;;;;;;8.27;5.30;;;;;;;36.66;34.01;100527.25;5053661;28;20037;-84
2022/08/06 10:40:54;;;;;;;10.77;5.13;;;;;;;36.50;33.37;100516.63;5018504;28;20091;-83
2022/08/06 10:43:19;;;;;;;7.63;4.95;;;;;;;38.47;30.09;100519.22;5034801;28;20425;-85
2022/08/06 10:45:45;;;;;;;5.85;5.10;;;;;;;38.66;30.15;100521.41;5010654;28;20421;-84
2022/08/06 10:48:11;;;;;;;9.68;5.50;;;;;;;37.70;31.17;100517.09;5036946;28;20039;-84
2022/08/06 10:50:37;;;;;;;5.82;5.07;;;;;;;38.59;30.12;100508.00;5042702;28;20033;-84
2022/08/06 10:53:03;;;;;;;6.22;5.18;;;;;;;39.34;29.80;100509.38;5038484;28;20382;-84
2022/08/06 10:55:29;;;;;;;6.43;5.45;;;;;;;37.36;33.09;100507.84;5050637;28;20032;-84
2022/08/06 10:57:54;;;;;;;6.65;5.70;;;;;;;35.47;36.63;100493.50;5033948;28;20063;-83
2022/08/06 11:00:20;;;;;;;7.38;5.60;;;;;;;34.31;38.96;100516.47;5030781;28;20485;-83
2022/08/06 11:03:06;;;;;;;6.75;5.90;;;;;;;33.75;39.39;100505.72;5033021;28;20064;-83
2022/08/06 11:05:36;;;;;;;6.88;6.10;;;;;;;32.46;42.89;100525.78;5031449;28;20032;-83
2022/08/06 11:08:20;;;;;;;7.70;5.63;;;;;;;31.60;44.52;100509.66;5032262;28;20032;-83
2022/08/06 11:11:36;;;;;;;15.02;6.47;;;;;;;31.71;44.63;100517.50;5047781;28;20106;-83
2022/08/06 11:14:09;;;;;;;6.82;5.80;;;;;;;32.13;44.18;100529.53;5017551;28;20070;-83
2022/08/06 11:16:35;;;;;;;8.43;5.80;;;;;;;32.01;44.50;100509.75;5031971;28;20063;-83
2022/08/06 11:19:09;;;;;;;6.80;6.18;;;;;;;31.31;46.59;100521.81;5049978;28;20037;-82
2022/08/06 11:21:42;;;;;;;6.93;6.22;;;;;;;30.87;47.43;100517.50;5025651;28;20116;-83
2022/08/06 11:24:08;;;;;;;7.70;6.20;;;;;;;30.45;47.35;100521.94;5018838;28;20111;-83
2022/08/06 11:26:39;;;;;;;7.72;6.30;;;;;;;30.33;47.71;100518.78;5031029;28;20087;-82
2022/08/06 11:29:11;;;;;;;7.13;5.93;;;;;;;30.26;47.35;100521.91;5047317;28;20046;-83
2022/08/06 11:31:48;;;;;;;8.23;6.03;;;;;;;30.12;47.11;100507.09;5048188;28;20033;-83
2022/08/06 11:34:15;;;;;;;6.75;5.78;;;;;;;30.04;47.19;100526.03;5048787;28;20528;-83
2022/08/06 11:36:54;;;;;;;7.68;5.97;;;;;;;29.89;48.18;100528.94;5045878;28;20087;-83